Time;durP1;ratioP1;P1;durP2;ratioP2;P2;SDS_P1;SDS_P2;PMS_P1;PMS_P2;Temp;Humidity;BMP_temperature;BMP_pressure;BME280_temperature;BME280_humidity;BME280_pressure;Samples;Min_cycle;Max_cycle;Signal;HPM_P1;HPM_P2
2022/01/22 00:01:14;;;;;;;1999.90;999.90;;;5.80;99.90;;;;;;5050129;28;20446;-71
2022/01/22 00:03:41;;;;;;;1999.90;999.90;;;5.80;99.90;;;;;;5050985;28;21118;-69
2022/01/22 00:06:09;;;;;;;1999.90;999.90;;;6.40;99.90;;;;;;5050020;28;20462;-70
2022/01/22 00:08:35;;;;;;;1999.90;999.90;;;5.80;99.90;;;;;;5050811;28;21139;-69
2022/01/22 00:11:03;;;;;;;1999.90;999.90;;;5.90;99.90;;;;;;5050215;28;20505;-69
2022/01/22 00:16:15;;;;;;;1999.90;999.90;;;5.90;99.90;;;;;;5051965;28;20477;-69
2022/01/22 00:18:42;;;;;;;1999.90;999.90;;;5.90;99.90;;;;;;5052726;28;20454;-69
2022/01/22 00:21:10;;;;;;;1999.90;999.90;;;5.90;99.90;;;;;;5052348;28;20446;-69
2022/01/22 00:23:39;;;;;;;1999.90;999.90;;;5.90;99.90;;;;;;5052474;28;20496;-69
2022/01/22 00:26:06;;;;;;;1999.90;999.90;;;5.90;99.90;;;;;;5052148;28;20486;-69
2022/01/22 00:28:32;;;;;;;1999.90;999.90;;;5.90;99.90;;;;;;5052665;28;20438;-69
2022/01/22 00:30:59;;;;;;;1999.90;999.90;;;5.90;99.90;;;;;;5051904;28;20454;-69
2022/01/22 00:33:26;;;;;;;1999.90;999.90;;;5.90;99.90;;;;;;5052160;28;20462;-68
2022/01/22 00:35:52;;;;;;;1999.90;999.90;;;6.00;99.90;;;;;;5052141;28;21025;-69
2022/01/22 00:38:20;;;;;;;1999.90;999.90;;;6.00;99.90;;;;;;5052108;28;20504;-69
2022/01/22 00:40:51;;;;;;;1999.90;999.90;;;6.00;99.90;;;;;;5051810;28;20930;-69
2022/01/22 00:43:18;;;;;;;1999.90;999.90;;;6.00;99.90;;;;;;5052046;28;20443;-69
2022/01/22 00:45:44;;;;;;;1999.90;999.90;;;6.00;99.90;;;;;;5052451;28;20458;-69
2022/01/22 00:48:11;;;;;;;1999.90;999.90;;;6.10;99.90;;;;;;5051878;28;20439;-70
2022/01/22 00:50:38;;;;;;;1999.90;999.90;;;6.00;99.90;;;;;;5051102;28;20844;-69
2022/01/22 00:53:05;;;;;;;1999.90;999.90;;;6.10;99.90;;;;;;5051741;28;20446;-69
2022/01/22 00:55:33;;;;;;;1999.90;999.90;;;6.00;99.90;;;;;;5052407;28;20888;-69
2022/01/22 00:57:59;;;;;;;1999.90;999.90;;;6.10;99.90;;;;;;5052198;28;20508;-69
2022/01/22 01:00:26;;;;;;;1999.90;999.90;;;6.10;99.90;;;;;;5051836;28;20438;-69
2022/01/22 01:02:53;;;;;;;1999.90;999.90;;;6.10;99.90;;;;;;5051301;28;20442;-68
2022/01/22 01:05:19;;;;;;;1999.90;999.90;;;6.10;99.90;;;;;;5051881;28;20438;-69
2022/01/22 01:07:46;;;;;;;1999.90;999.90;;;6.10;99.90;;;;;;5051333;28;20533;-69
2022/01/22 01:10:16;;;;;;;1999.90;999.90;;;5.70;99.90;;;;;;5051808;28;20492;-71
2022/01/22 01:12:45;;;;;;;1999.90;999.90;;;6.10;99.90;;;;;;5053438;28;20446;-69
2022/01/22 01:15:24;;;;;;;1999.90;999.90;;;6.10;99.90;;;;;;5055764;28;20480;-69
2022/01/22 01:32:08;;;;;;;1999.90;999.90;;;6.10;99.90;;;;;;5052268;28;20442;-69
2022/01/22 01:34:38;;;;;;;1999.90;999.90;;;6.20;99.90;;;;;;5046238;28;20437;-68
2022/01/22 01:37:05;;;;;;;1999.90;999.90;;;6.20;99.90;;;;;;5054595;28;20490;-69
2022/01/22 01:39:34;;;;;;;1999.90;999.90;;;6.20;99.90;;;;;;5054753;28;20838;-69
2022/01/22 01:42:05;;;;;;;1999.90;999.90;;;6.10;99.90;;;;;;5055357;28;20451;-69
2022/01/22 01:44:33;;;;;;;1999.90;999.90;;;6.20;99.90;;;;;;5055489;28;20541;-69
2022/01/22 01:47:02;;;;;;;1999.90;999.90;;;6.20;99.90;;;;;;5055162;28;20457;-70
2022/01/22 01:49:30;;;;;;;1999.90;999.90;;;6.20;99.90;;;;;;5054380;28;20450;-69
2022/01/22 01:52:00;;;;;;;1999.90;999.90;;;6.20;99.90;;;;;;5055283;28;20442;-69
2022/01/22 01:54:34;;;;;;;1999.90;999.90;;;6.20;99.90;;;;;;5054932;28;20537;-69
2022/01/22 01:59:50;;;;;;;1999.90;999.90;;;6.30;99.90;;;;;;5055069;28;20432;-69
2022/01/22 02:02:17;;;;;;;1999.90;999.90;;;6.30;99.90;;;;;;5055391;28;20461;-69
2022/01/22 02:04:44;;;;;;;1999.90;999.90;;;6.30;99.90;;;;;;5055160;28;20454;-68
2022/01/22 02:07:11;;;;;;;1999.90;999.90;;;6.30;99.90;;;;;;5054937;28;20469;-68
2022/01/22 02:09:40;;;;;;;1999.90;999.90;;;6.30;99.90;;;;;;5055185;28;20446;-69
2022/01/22 02:12:12;;;;;;;1999.90;999.90;;;6.20;99.90;;;;;;5055095;28;20446;-70
2022/01/22 02:25:40;;;;;;;1999.90;999.90;;;6.30;99.90;;;;;;5051620;28;20464;-70
2022/01/22 02:28:07;;;;;;;1999.90;999.90;;;6.30;99.90;;;;;;5054463;28;20964;-69
2022/01/22 02:30:38;;;;;;;1999.90;999.90;;;6.30;99.90;;;;;;5054299;28;20461;-69
2022/01/22 02:33:17;;;;;;;1999.90;999.90;;;6.30;99.90;;;;;;5054359;28;20446;-69
2022/01/22 02:35:50;;;;;;;1999.90;999.90;;;6.30;99.90;;;;;;5054473;28;20485;-69
2022/01/22 02:38:23;;;;;;;1999.90;999.90;;;6.30;99.90;;;;;;5054418;28;20453;-69
2022/01/22 02:40:50;;;;;;;1999.90;999.90;;;6.30;99.90;;;;;;5054161;28;20975;-70
2022/01/22 02:43:18;;;;;;;1999.90;999.90;;;6.30;99.90;;;;;;5054419;28;20485;-69
2022/01/22 02:45:47;;;;;;;1999.90;999.90;;;6.30;99.90;;;;;;5053926;28;20465;-69
2022/01/22 02:48:14;;;;;;;1999.90;999.90;;;6.30;99.90;;;;;;5052910;28;20463;-69
2022/01/22 02:50:41;;;;;;;1999.90;999.90;;;6.30;99.90;;;;;;5053351;28;20442;-70
2022/01/22 02:53:10;;;;;;;1999.90;999.90;;;6.30;99.90;;;;;;5054211;28;20454;-68
2022/01/22 02:55:39;;;;;;;1999.90;999.90;;;6.20;99.90;;;;;;5053977;28;20846;-69
2022/01/22 02:58:07;;;;;;;1999.90;999.90;;;6.40;99.90;;;;;;5054045;28;20442;-69
2022/01/22 03:00:35;;;;;;;1999.90;999.90;;;6.30;99.90;;;;;;5053506;28;20461;-69
2022/01/22 03:03:02;;;;;;;1999.90;999.90;;;6.20;99.90;;;;;;5054397;28;20461;-67
2022/01/22 03:05:29;;;;;;;1999.90;999.90;;;6.20;99.90;;;;;;5053405;28;20446;-67
2022/01/22 03:07:57;;;;;;;1999.90;999.90;;;6.20;99.90;;;;;;5054144;28;20438;-68
2022/01/22 03:10:26;;;;;;;1999.90;999.90;;;6.20;99.90;;;;;;5053580;28;20450;-67
2022/01/22 03:13:20;;;;;;;1999.90;999.90;;;6.20;99.90;;;;;;5053694;28;20453;-67
2022/01/22 03:15:57;;;;;;;1999.90;999.90;;;6.20;99.90;;;;;;5053422;28;20510;-67
2022/01/22 03:18:37;;;;;;;1999.90;999.90;;;6.20;99.90;;;;;;5053953;28;20442;-67
2022/01/22 03:21:12;;;;;;;1999.90;999.90;;;6.20;99.90;;;;;;5053273;28;20587;-67
2022/01/22 03:29:12;;;;;;;1999.90;999.90;;;6.20;99.90;;;;;;5053184;28;20798;-68
2022/01/22 03:31:41;;;;;;;1999.90;999.90;;;6.20;99.90;;;;;;5053198;28;20537;-67
2022/01/22 03:34:07;;;;;;;1999.90;999.90;;;6.20;99.90;;;;;;5053520;28;20449;-67
2022/01/22 03:36:35;;;;;;;1999.90;999.90;;;6.20;99.90;;;;;;5052258;28;20890;-67
2022/01/22 03:39:04;;;;;;;1999.90;999.90;;;6.10;99.90;;;;;;5053181;28;21123;-67
2022/01/22 03:41:31;;;;;;;1999.90;999.90;;;6.10;99.90;;;;;;5052560;28;20992;-67
2022/01/22 03:43:57;;;;;;;1999.90;999.90;;;6.10;99.90;;;;;;5053056;28;20512;-67
2022/01/22 03:46:25;;;;;;;1999.90;999.90;;;6.10;99.90;;;;;;5052851;28;20462;-67
2022/01/22 03:48:52;;;;;;;1999.90;999.90;;;6.10;99.90;;;;;;5052445;28;20458;-67
2022/01/22 03:51:19;;;;;;;1999.90;999.90;;;6.10;99.90;;;;;;5052641;28;20442;-67
2022/01/22 03:53:46;;;;;;;1999.90;999.90;;;6.10;99.90;;;;;;5052986;28;20446;-67
2022/01/22 03:56:13;;;;;;;1999.90;999.90;;;6.10;99.90;;;;;;5052940;28;20535;-67
2022/01/22 03:58:42;;;;;;;1999.90;999.90;;;6.10;99.90;;;;;;5052393;28;20478;-69
2022/01/22 04:01:57;;;;;;;1999.90;999.90;;;6.10;99.90;;;;;;5052764;28;20438;-67
2022/01/22 04:04:24;;;;;;;1999.90;999.90;;;6.10;99.90;;;;;;5052489;28;20434;-67
2022/01/22 04:07:27;;;;;;;1999.90;999.90;;;6.10;99.90;;;;;;5052850;28;20466;-68
2022/01/22 04:09:56;;;;;;;1999.90;999.90;;;6.10;99.90;;;;;;5052599;28;20454;-64
2022/01/22 04:12:30;;;;;;;1999.90;999.90;;;6.10;99.90;;;;;;5052110;28;20926;-69
2022/01/22 04:15:01;;;;;;;1999.90;999.90;;;6.10;99.90;;;;;;5052567;28;20456;-67
2022/01/22 04:17:37;;;;;;;1999.90;999.90;;;6.10;99.90;;;;;;5052834;28;20478;-67
2022/01/22 04:25:39;;;;;;;1999.90;999.90;;;6.10;99.90;;;;;;5051501;28;20449;-69
2022/01/22 04:28:06;;;;;;;1999.90;999.90;;;6.10;99.90;;;;;;5052197;28;20525;-68
2022/01/22 04:30:33;;;;;;;1999.90;999.90;;;6.10;99.90;;;;;;5051243;28;20455;-67
2022/01/22 04:33:04;;;;;;;1999.90;999.90;;;6.10;99.90;;;;;;5052762;28;20442;-67
2022/01/22 04:35:33;;;;;;;1999.90;999.90;;;6.10;99.90;;;;;;5051870;28;20446;-68
2022/01/22 04:38:00;;;;;;;1999.90;999.90;;;6.10;99.90;;;;;;5052233;28;20481;-67
2022/01/22 04:40:27;;;;;;;1999.90;999.90;;;6.20;99.90;;;;;;5051695;28;20504;-67
2022/01/22 04:42:53;;;;;;;1999.90;999.90;;;6.10;99.90;;;;;;5051863;28;20856;-67
2022/01/22 04:45:27;;;;;;;1999.90;999.90;;;6.10;99.90;;;;;;5051357;28;21145;-67
2022/01/22 04:48:09;;;;;;;1999.90;999.90;;;6.20;99.90;;;;;;5051599;28;20470;-67
2022/01/22 04:56:05;;;;;;;1999.90;999.90;;;6.20;99.90;;;;;;5050946;28;20478;-67
2022/01/22 04:58:32;;;;;;;1999.90;999.90;;;6.20;99.90;;;;;;5052213;28;20438;-69
2022/01/22 05:00:58;;;;;;;1999.90;999.90;;;6.20;99.90;;;;;;5051513;28;20794;-67
2022/01/22 05:03:25;;;;;;;1999.90;999.90;;;6.20;99.90;;;;;;5051694;28;20439;-67
2022/01/22 05:05:54;;;;;;;1999.90;999.90;;;6.20;99.90;;;;;;5051318;28;21034;-67
2022/01/22 05:08:20;;;;;;;1999.90;999.90;;;6.20;99.90;;;;;;5052018;28;20438;-68
2022/01/22 05:10:47;;;;;;;1999.90;999.90;;;6.20;99.90;;;;;;5049654;28;20862;-68
2022/01/22 05:13:13;;;;;;;1999.90;999.90;;;6.20;99.90;;;;;;5050810;28;21018;-67
2022/01/22 05:15:40;;;;;;;1999.90;999.90;;;6.20;99.90;;;;;;5049422;28;21112;-67
2022/01/22 05:18:08;;;;;;;1999.90;999.90;;;6.20;99.90;;;;;;5049897;28;20508;-65
2022/01/22 05:20:43;;;;;;;1999.90;999.90;;;6.20;99.90;;;;;;5051021;28;20824;-65
2022/01/22 05:23:15;;;;;;;1999.90;999.90;;;6.20;99.90;;;;;;5052018;28;20442;-67
2022/01/22 05:25:46;;;;;;;1999.90;999.90;;;6.20;99.90;;;;;;5051298;28;20498;-68
2022/01/22 05:31:05;;;;;;;1999.90;999.90;;;6.20;99.90;;;;;;5041604;28;20500;-67
2022/01/22 05:39:04;;;;;;;1999.90;999.90;;;6.30;99.90;;;;;;5051288;28;20445;-67
2022/01/22 05:41:32;;;;;;;1999.90;999.90;;;6.20;99.90;;;;;;5051166;28;20446;-67
2022/01/22 05:43:58;;;;;;;1999.90;999.90;;;6.20;99.90;;;;;;5051713;28;20488;-67
2022/01/22 05:46:25;;;;;;;1999.90;999.90;;;6.20;99.90;;;;;;5051482;28;20458;-67
2022/01/22 05:48:52;;;;;;;1999.90;999.90;;;6.20;99.90;;;;;;5051370;28;20459;-69
2022/01/22 05:51:18;;;;;;;1999.90;999.90;;;6.20;99.90;;;;;;5051442;28;20493;-67
2022/01/22 05:54:01;;;;;;;1999.90;999.90;;;6.30;99.90;;;;;;5051282;28;20435;-67
2022/01/22 06:01:56;;;;;;;1999.90;999.90;;;6.20;99.90;;;;;;5045989;28;20426;-67
2022/01/22 06:04:23;;;;;;;1999.90;999.90;;;6.30;99.90;;;;;;5055216;28;20434;-67
2022/01/22 06:06:49;;;;;;;1999.90;999.90;;;6.30;99.90;;;;;;5054987;28;20458;-68
2022/01/22 06:09:16;;;;;;;1999.90;999.90;;;6.20;99.90;;;;;;5055042;28;20434;-67
2022/01/22 06:11:54;;;;;;;1999.90;999.90;;;6.30;99.90;;;;;;5054385;28;20842;-68
2022/01/22 06:14:22;;;;;;;1999.90;999.90;;;6.30;99.90;;;;;;5055753;28;20811;-67
2022/01/22 06:16:49;;;;;;;1999.90;999.90;;;6.30;99.90;;;;;;5035033;28;20556;-67
2022/01/22 06:19:15;;;;;;;1999.90;999.90;;;6.30;99.90;;;;;;5035532;28;20451;-67
2022/01/22 06:21:42;;;;;;;1999.90;999.90;;;6.30;99.90;;;;;;5040867;28;20447;-70
2022/01/22 06:24:11;;;;;;;1999.90;999.90;;;6.30;99.90;;;;;;5054658;28;20507;-67
2022/01/22 06:26:38;;;;;;;1999.90;999.90;;;6.30;99.90;;;;;;5053897;28;20832;-67
2022/01/22 06:29:06;;;;;;;1999.90;999.90;;;6.30;99.90;;;;;;5054131;28;20938;-67
2022/01/22 06:31:32;;;;;;;1999.90;999.90;;;6.30;99.90;;;;;;5054987;28;20442;-68
2022/01/22 06:33:59;;;;;;;1999.90;999.90;;;6.30;99.90;;;;;;5078003;28;20434;-69
2022/01/22 06:36:26;;;;;;;1999.90;999.90;;;6.30;99.90;;;;;;5076876;28;20447;-71
2022/01/22 06:38:57;;;;;;;1999.90;999.90;;;6.30;99.90;;;;;;5065702;28;20439;-67
2022/01/22 06:44:10;;;;;;;1999.90;999.90;;;6.30;99.90;;;;;;5054565;28;20963;-68
2022/01/22 06:46:37;;;;;;;1999.90;999.90;;;6.30;99.90;;;;;;5054287;28;20909;-67
2022/01/22 06:49:04;;;;;;;1999.90;999.90;;;6.30;99.90;;;;;;5054131;28;20878;-67
2022/01/22 06:51:30;;;;;;;1999.90;999.90;;;6.30;99.90;;;;;;5053580;28;20469;-69
2022/01/22 06:53:57;;;;;;;1999.90;999.90;;;6.30;99.90;;;;;;5054230;28;20442;-67
2022/01/22 06:56:25;;;;;;;1999.90;999.90;;;6.30;99.90;;;;;;5053816;28;20466;-67
2022/01/22 06:58:51;;;;;;;1999.90;999.90;;;6.30;99.90;;;;;;5054261;28;20840;-67
2022/01/22 07:01:20;;;;;;;1999.90;999.90;;;6.30;99.90;;;;;;5052709;28;20473;-66
2022/01/22 07:03:46;;;;;;;1999.90;999.90;;;6.30;99.90;;;;;;5054955;28;20449;-67
2022/01/22 07:06:13;;;;;;;1999.90;999.90;;;6.30;99.90;;;;;;5054535;28;20467;-67
2022/01/22 07:08:39;;;;;;;1999.90;999.90;;;6.30;99.90;;;;;;5053508;28;20465;-69
2022/01/22 07:11:06;;;;;;;1999.90;999.90;;;6.30;99.90;;;;;;5053290;28;20450;-68
2022/01/22 07:13:33;;;;;;;1999.90;999.90;;;6.30;99.90;;;;;;5053783;28;20511;-67
2022/01/22 07:16:00;;;;;;;1999.90;999.90;;;6.30;99.90;;;;;;5053576;28;20826;-66
2022/01/22 07:18:29;;;;;;;1999.90;999.90;;;6.30;99.90;;;;;;5052755;28;20934;-67
2022/01/22 07:20:56;;;;;;;1999.90;999.90;;;6.30;99.90;;;;;;5053193;28;21016;-67
2022/01/22 07:23:54;;;;;;;1999.90;999.90;;;6.30;99.90;;;;;;5051321;28;20461;-68
2022/01/22 07:26:19;;;;;;;1999.90;999.90;;;6.30;99.90;;;;;;5053402;28;20844;-67
2022/01/22 07:28:45;;;;;;;1999.90;999.90;;;6.30;99.90;;;;;;5053793;28;20500;-67
2022/01/22 07:31:13;;;;;;;1999.90;999.90;;;6.30;99.90;;;;;;5051733;28;20450;-67
2022/01/22 07:33:41;;;;;;;1999.90;999.90;;;6.30;99.90;;;;;;5053960;28;20512;-68
2022/01/22 07:36:07;;;;;;;1999.90;999.90;;;6.30;99.90;;;;;;5052986;28;21054;-68
2022/01/22 07:38:37;;;;;;;1999.90;999.90;;;6.30;99.90;;;;;;5052006;28;20478;-69
2022/01/22 07:41:04;;;;;;;1999.90;999.90;;;6.30;99.90;;;;;;5056314;28;20465;-69
2022/01/22 07:43:31;;;;;;;1999.90;999.90;;;6.30;99.90;;;;;;5058285;28;20512;-69
2022/01/22 07:45:57;;;;;;;1999.90;999.90;;;6.30;99.90;;;;;;5053825;28;20478;-67
2022/01/22 07:48:24;;;;;;;1999.90;999.90;;;6.30;99.90;;;;;;5053388;28;20446;-67
2022/01/22 07:50:52;;;;;;;1999.90;999.90;;;6.30;99.90;;;;;;5052427;28;20446;-68
2022/01/22 07:53:19;;;;;;;1999.90;999.90;;;6.30;99.90;;;;;;5051151;28;20454;-69
2022/01/22 07:55:45;;;;;;;1999.90;999.90;;;6.30;99.90;;;;;;5051127;28;20486;-67
2022/01/22 07:58:14;;;;;;;1999.90;999.90;;;6.30;99.90;;;;;;5051943;28;20490;-67
2022/01/22 08:00:41;;;;;;;1999.90;999.90;;;6.30;99.90;;;;;;5050291;28;20524;-66
2022/01/22 08:03:08;;;;;;;1999.90;999.90;;;6.30;99.90;;;;;;5052380;28;20450;-69
2022/01/22 08:05:35;;;;;;;1999.90;999.90;;;6.30;99.90;;;;;;5053074;28;20954;-67
2022/01/22 08:08:04;;;;;;;1999.90;999.90;;;6.30;99.90;;;;;;5052389;28;20442;-67
2022/01/22 08:10:31;;;;;;;1999.90;999.90;;;6.30;99.90;;;;;;5052386;28;20450;-67
2022/01/22 08:12:58;;;;;;;1999.90;999.90;;;6.40;99.90;;;;;;5052902;28;20946;-67
2022/01/22 08:15:25;;;;;;;1999.90;999.90;;;6.40;99.90;;;;;;5052460;28;20450;-67
2022/01/22 08:17:52;;;;;;;1999.90;999.90;;;6.30;99.90;;;;;;5052317;28;20474;-67
2022/01/22 08:20:21;;;;;;;1999.90;999.90;;;6.30;99.90;;;;;;5052126;28;20466;-67
2022/01/22 08:22:48;;;;;;;1999.90;999.90;;;6.30;99.90;;;;;;5052140;28;20450;-67
2022/01/22 08:25:16;;;;;;;1999.90;999.90;;;6.30;99.90;;;;;;5052435;28;20496;-67
2022/01/22 08:28:52;;;;;;;1999.90;999.90;;;6.30;99.90;;;;;;5052198;28;20516;-67
2022/01/22 08:30:30;;;;;;;1999.90;999.90;;;6.30;99.90;;;;;;5051723;28;20496;-67
2022/01/22 08:33:09;;;;;;;1999.90;999.90;;;6.30;99.90;;;;;;5051631;28;20504;-68
2022/01/22 08:35:53;;;;;;;1999.90;999.90;;;6.30;99.90;;;;;;5051912;28;21025;-67
2022/01/22 08:38:21;;;;;;;1999.90;999.90;;;6.30;99.90;;;;;;5051862;28;20493;-67
2022/01/22 08:40:49;;;;;;;1999.90;999.90;;;6.30;99.90;;;;;;5051914;28;20442;-67
2022/01/22 08:43:15;;;;;;;1999.90;999.90;;;6.30;99.90;;;;;;5051700;28;20496;-67
2022/01/22 08:45:42;;;;;;;1999.90;999.90;;;6.30;99.90;;;;;;5051015;28;20489;-67
2022/01/22 08:48:09;;;;;;;1999.90;999.90;;;6.30;99.90;;;;;;5050214;28;21004;-68
2022/01/22 08:50:36;;;;;;;1999.90;999.90;;;6.30;99.90;;;;;;5051364;28;20453;-67
2022/01/22 08:53:02;;;;;;;1999.90;999.90;;;6.30;99.90;;;;;;5051463;28;20970;-67
2022/01/22 08:55:29;;;;;;;1999.90;999.90;;;6.30;99.90;;;;;;5050890;28;22159;-67
2022/01/22 08:57:57;;;;;;;1999.90;999.90;;;6.20;99.90;;;;;;5051573;28;21001;-67
2022/01/22 09:00:24;;;;;;;1999.90;999.90;;;6.20;99.90;;;;;;5050795;28;20498;-69
2022/01/22 09:02:50;;;;;;;1999.90;999.90;;;6.20;99.90;;;;;;5051386;28;20442;-67
2022/01/22 09:05:18;;;;;;;1999.90;999.90;;;6.20;99.90;;;;;;5050392;28;20808;-66
2022/01/22 09:07:45;;;;;;;1999.90;999.90;;;6.30;99.90;;;;;;5051554;28;20541;-68
2022/01/22 09:10:12;;;;;;;1999.90;999.90;;;6.30;99.90;;;;;;5053144;28;20450;-67
2022/01/22 09:12:38;;;;;;;1999.90;999.90;;;6.40;99.90;;;;;;5052693;28;20470;-69
2022/01/22 09:15:07;;;;;;;1999.90;999.90;;;6.40;99.90;;;;;;5052116;28;20454;-67
2022/01/22 09:17:35;;;;;;;1999.90;999.90;;;6.50;99.90;;;;;;5052240;28;20481;-67
2022/01/22 09:20:05;;;;;;;1999.90;999.90;;;6.50;99.90;;;;;;5052252;28;20445;-67
2022/01/22 09:22:32;;;;;;;1999.90;999.90;;;6.50;99.90;;;;;;5052571;28;20545;-67
2022/01/22 09:24:58;;;;;;;1999.90;999.90;;;6.50;99.90;;;;;;5052362;28;20472;-70
2022/01/22 09:27:26;;;;;;;1999.90;999.90;;;6.50;99.90;;;;;;5052067;28;20497;-68
2022/01/22 09:29:53;;;;;;;1999.90;999.90;;;6.50;99.90;;;;;;5052957;28;20454;-67
2022/01/22 09:32:21;;;;;;;1999.90;999.90;;;6.60;99.90;;;;;;5052883;28;20454;-67
2022/01/22 09:34:48;;;;;;;1999.90;999.90;;;6.60;99.90;;;;;;5055295;28;20450;-68
2022/01/22 09:37:14;;;;;;;1999.90;999.90;;;6.60;99.90;;;;;;5055751;28;20458;-67
2022/01/22 09:39:41;;;;;;;1999.90;999.90;;;6.60;99.90;;;;;;5054842;28;20496;-68
2022/01/22 09:42:08;;;;;;;1999.90;999.90;;;6.60;99.90;;;;;;5055875;28;20450;-69
2022/01/22 09:44:38;;;;;;;1999.90;999.90;;;6.60;99.90;;;;;;5056174;28;20450;-68
2022/01/22 09:47:06;;;;;;;1999.90;999.90;;;6.60;99.90;;;;;;5056418;28;20470;-67
2022/01/22 09:49:34;;;;;;;1999.90;999.90;;;6.70;99.90;;;;;;5055911;28;20496;-67
2022/01/22 09:52:01;;;;;;;1999.90;999.90;;;6.70;99.90;;;;;;5056036;28;20450;-67
2022/01/22 09:54:27;;;;;;;1999.90;999.90;;;6.70;99.90;;;;;;5056479;28;20500;-67
2022/01/22 09:56:57;;;;;;;1999.90;999.90;;;6.70;99.90;;;;;;5055611;28;20524;-67
2022/01/22 09:59:23;;;;;;;1999.90;999.90;;;6.70;99.90;;;;;;5055997;28;20585;-67
2022/01/22 10:01:50;;;;;;;1999.90;999.90;;;6.70;99.90;;;;;;5055902;28;20472;-67
2022/01/22 10:04:17;;;;;;;1999.90;999.90;;;6.70;99.90;;;;;;5056916;28;20496;-68
2022/01/22 10:06:50;;;;;;;1999.90;999.90;;;6.70;99.90;;;;;;5056581;28;20462;-68
2022/01/22 10:09:26;;;;;;;1999.90;999.90;;;6.70;99.90;;;;;;5055980;28;20453;-67
2022/01/22 10:12:08;;;;;;;1999.90;999.90;;;6.70;99.90;;;;;;5055925;28;20485;-67
2022/01/22 10:14:34;;;;;;;1999.90;999.90;;;6.70;99.90;;;;;;5056021;28;20433;-68
2022/01/22 10:17:01;;;;;;;1999.90;999.90;;;6.70;99.90;;;;;;5055443;28;20969;-67
2022/01/22 10:19:28;;;;;;;1999.90;999.90;;;6.70;99.90;;;;;;5055926;28;20846;-67
2022/01/22 10:21:58;;;;;;;1999.90;999.90;;;6.70;99.90;;;;;;5055167;28;20454;-67
2022/01/22 10:24:35;;;;;;;1999.90;999.90;;;6.70;99.90;;;;;;5054935;28;20505;-67
2022/01/22 10:27:23;;;;;;;1999.90;999.90;;;6.70;99.90;;;;;;5056069;28;20470;-68
2022/01/22 10:29:53;;;;;;;1999.90;999.90;;;6.70;99.90;;;;;;5056184;28;20460;-67
2022/01/22 10:32:25;;;;;;;1999.90;999.90;;;6.70;99.90;;;;;;5054738;28;20796;-67
2022/01/22 10:35:04;;;;;;;1999.90;999.90;;;6.70;99.90;;;;;;5054323;28;20982;-70
2022/01/22 10:37:32;;;;;;;1999.90;999.90;;;6.80;99.90;;;;;;5054084;28;20528;-69
2022/01/22 10:40:23;;;;;;;1999.90;999.90;;;6.80;99.90;;;;;;5053948;28;20500;-69
2022/01/22 10:42:50;;;;;;;1999.90;999.90;;;6.70;99.90;;;;;;5054294;28;20500;-69
2022/01/22 10:45:25;;;;;;;1999.90;999.90;;;6.70;99.90;;;;;;5052557;28;20884;-69
2022/01/22 10:48:13;;;;;;;1999.90;999.90;;;6.80;99.90;;;;;;5054122;28;20834;-69
2022/01/22 10:50:40;;;;;;;1999.90;999.90;;;6.70;99.90;;;;;;5053505;28;20446;-68
2022/01/22 10:53:09;;;;;;;1999.90;999.90;;;6.70;99.90;;;;;;5053916;28;20449;-70
2022/01/22 10:56:01;;;;;;;1999.90;999.90;;;6.70;99.90;;;;;;5054094;28;20450;-70
2022/01/22 10:58:28;;;;;;;1999.90;999.90;;;6.70;99.90;;;;;;5054104;28;20500;-70
2022/01/22 11:01:03;;;;;;;1999.90;999.90;;;6.70;99.90;;;;;;5058385;28;21005;-70
2022/01/22 11:03:30;;;;;;;1999.90;999.90;;;6.60;99.90;;;;;;5076719;28;20507;-71
2022/01/22 11:05:58;;;;;;;1999.90;999.90;;;6.70;99.90;;;;;;5077128;28;20524;-70
2022/01/22 11:08:28;;;;;;;1999.90;999.90;;;6.70;99.90;;;;;;5062817;28;20458;-70
2022/01/22 11:10:55;;;;;;;1999.90;999.90;;;6.70;99.90;;;;;;5053656;28;20442;-69
2022/01/22 11:13:22;;;;;;;1999.90;999.90;;;6.70;99.90;;;;;;5054574;28;20488;-69
2022/01/22 11:15:51;;;;;;;1999.90;999.90;;;6.70;99.90;;;;;;5053759;28;20474;-69
2022/01/22 11:18:19;;;;;;;1999.90;999.90;;;6.70;99.90;;;;;;5046811;28;20485;-69
2022/01/22 11:20:47;;;;;;;1999.90;999.90;;;6.70;99.90;;;;;;5051484;28;20470;-69
2022/01/22 11:23:15;;;;;;;1999.90;999.90;;;6.70;99.90;;;;;;5054035;28;20442;-69
2022/01/22 11:25:43;;;;;;;1999.90;999.90;;;6.70;99.90;;;;;;5053020;28;21013;-71
2022/01/22 11:28:09;;;;;;;1999.90;999.90;;;6.70;99.90;;;;;;5052157;28;20470;-69
2022/01/22 11:30:37;;;;;;;1999.90;999.90;;;6.70;99.90;;;;;;5052841;28;20450;-69
2022/01/22 11:33:09;;;;;;;1999.90;999.90;;;6.70;99.90;;;;;;5053929;28;20450;-69
2022/01/22 11:35:45;;;;;;;1999.90;999.90;;;6.70;99.90;;;;;;5052227;28;20459;-69
2022/01/22 11:38:19;;;;;;;1999.90;999.90;;;6.70;99.90;;;;;;5054637;28;20486;-70
2022/01/22 11:41:06;;;;;;;1999.90;999.90;;;6.70;99.90;;;;;;5053502;28;20435;-69
2022/01/22 11:43:56;;;;;;;1999.90;999.90;;;6.70;99.90;;;;;;5053603;28;21212;-70
2022/01/22 11:46:28;;;;;;;1999.90;999.90;;;6.80;99.90;;;;;;5053946;28;20470;-69
2022/01/22 11:49:21;;;;;;;1999.90;999.90;;;6.80;99.90;;;;;;5052887;28;20431;-69
2022/01/22 11:51:50;;;;;;;1999.90;999.90;;;6.70;99.90;;;;;;5042286;28;20458;-69
2022/01/22 11:54:18;;;;;;;1999.90;999.90;;;6.70;99.90;;;;;;5053057;28;20474;-69
2022/01/22 11:56:49;;;;;;;1999.90;999.90;;;6.70;99.90;;;;;;5052287;28;20466;-68
2022/01/22 11:59:20;;;;;;;1999.90;999.90;;;6.60;99.90;;;;;;5052704;28;20474;-69
2022/01/22 12:02:03;;;;;;;1999.90;999.90;;;6.60;99.90;;;;;;5050979;28;20512;-67
2022/01/22 12:04:49;;;;;;;1999.90;999.90;;;6.60;99.90;;;;;;5032012;28;20462;-69
2022/01/22 12:07:17;;;;;;;1999.90;999.90;;;6.50;99.90;;;;;;5034647;28;20478;-69
2022/01/22 12:09:53;;;;;;;1999.90;999.90;;;6.60;99.90;;;;;;5052643;28;20443;-66
2022/01/22 12:15:13;;;;;;;1999.90;999.90;;;6.50;99.90;;;;;;5041766;28;20433;-67
2022/01/22 12:18:10;;;;;;;1999.90;999.90;;;6.40;99.90;;;;;;5052546;28;20520;-67
2022/01/22 12:23:48;;;;;;;1999.90;999.90;;;6.50;99.90;;;;;;5052711;28;20513;-68
2022/01/22 12:26:15;;;;;;;1999.90;999.90;;;6.50;99.90;;;;;;5053284;28;20966;-67
2022/01/22 12:28:44;;;;;;;1999.90;999.90;;;6.50;99.90;;;;;;5052741;28;20505;-66
2022/01/22 12:31:14;;;;;;;1999.90;999.90;;;6.50;99.90;;;;;;5052445;28;20528;-69
2022/01/22 12:33:51;;;;;;;1999.90;999.90;;;6.50;99.90;;;;;;5053479;28;20454;-67
2022/01/22 12:36:25;;;;;;;1999.90;999.90;;;6.60;99.90;;;;;;5052866;28;20974;-67
2022/01/22 12:39:03;;;;;;;1999.90;999.90;;;6.50;99.90;;;;;;5052180;28;20465;-69
2022/01/22 12:41:32;;;;;;;1999.90;999.90;;;6.60;99.90;;;;;;5053409;28;20492;-69
2022/01/22 12:44:06;;;;;;;1999.90;999.90;;;6.60;99.90;;;;;;5053067;28;20469;-67
2022/01/22 12:46:33;;;;;;;1999.90;999.90;;;6.50;99.90;;;;;;5051582;28;20540;-64
2022/01/22 12:49:01;;;;;;;1999.90;999.90;;;6.60;99.90;;;;;;5051989;28;20884;-64
2022/01/22 12:51:28;;;;;;;1999.90;999.90;;;6.50;99.90;;;;;;5052639;28;20974;-64
2022/01/22 12:53:55;;;;;;;1999.90;999.90;;;6.70;99.90;;;;;;5053231;28;20512;-64
2022/01/22 12:59:11;;;;;;;1999.90;999.90;;;6.60;99.90;;;;;;5053451;28;20548;-65
2022/01/22 13:01:44;;;;;;;1999.90;999.90;;;6.50;99.90;;;;;;5053074;28;20465;-65
2022/01/22 13:04:11;;;;;;;1999.90;999.90;;;6.60;99.90;;;;;;5052714;28;20895;-67
2022/01/22 13:06:40;;;;;;;1999.90;999.90;;;6.60;99.90;;;;;;5072388;28;20498;-69
2022/01/22 13:09:08;;;;;;;1999.90;999.90;;;6.60;99.90;;;;;;5065997;28;20470;-69
2022/01/22 13:11:44;;;;;;;1999.90;999.90;;;6.60;99.90;;;;;;5052120;28;20451;-69
2022/01/22 13:14:14;;;;;;;1999.90;999.90;;;6.60;99.90;;;;;;5052054;28;20461;-69
2022/01/22 13:16:49;;;;;;;1999.90;999.90;;;6.70;99.90;;;;;;5052296;28;20899;-69
2022/01/22 13:19:16;;;;;;;1999.90;999.90;;;6.70;99.90;;;;;;5051547;28;20474;-69
2022/01/22 13:21:50;;;;;;;1999.90;999.90;;;6.70;99.90;;;;;;5051540;28;20500;-69
2022/01/22 13:24:19;;;;;;;1999.90;999.90;;;6.70;99.90;;;;;;5051338;28;20450;-71
2022/01/22 13:26:53;;;;;;;1999.90;999.90;;;6.70;99.90;;;;;;5052212;28;20470;-69
2022/01/22 13:29:24;;;;;;;1999.90;999.90;;;6.70;99.90;;;;;;5051824;28;20453;-70
2022/01/22 13:32:04;;;;;;;1999.90;999.90;;;6.70;99.90;;;;;;5052098;28;20450;-70
2022/01/22 13:34:42;;;;;;;1999.90;999.90;;;6.70;99.90;;;;;;5051770;28;20446;-69